Stations météo

réclame
Mon MeteoGroup
Elgoibar, Espagne (8036): Température de l'air & dewpoint: 09.08.2018 04:00:00 - 15.08.2018 04:00:00 (CEST)Elgoibar, Espagne (8036): Vitesse du vent & gusts: 09.08.2018 04:00:00 - 15.08.2018 04:00:00 (CEST)Elgoibar, Espagne (8036): Direction du vent: 09.08.2018 04:00:00 - 15.08.2018 04:00:00 (CEST)Elgoibar, Espagne (8036): reduced air pressure: 09.08.2018 04:00:00 - 15.08.2018 04:00:00 (CEST)Elgoibar, Espagne (8036): Quantités de précipitations: 09.08.2018 04:00:00 - 15.08.2018 04:00:00 (CEST)
Date & Time tt [°C] td [°C] ff [km/h] ff [knt] fx [km/h] fx [knt] dd ppp [hPa] rr [mm]
15.08.2018 04:00:00 17,0 15,7 0 0 0 0 N 1021,9 0,0
15.08.2018 03:00:00 17,3 15,8 0 0 0 0 N 1022,5 0,0
15.08.2018 02:00:00 17,4 15,7 0 0 0 0 N 1022,7 -
15.08.2018 01:00:00 17,4 15,5 0 0 0 0 N 1022,9 0,0
15.08.2018 00:00:00 17,4 15,3 0 0 5 3 N 1022,9 0,0
14.08.2018 23:00:00 18,2 15,1 3 2 8 4 ENE 1022,9 0,0
14.08.2018 22:00:00 19,2 15,1 0 0 0 0 N 1022,5 0,0
14.08.2018 21:00:00 19,9 14,2 0 0 13 7 NNE 1022,3 0,0
14.08.2018 20:00:00 20,4 13,9 8 4 18 10 NNE 1021,9 -
14.08.2018 19:00:00 21,0 13,9 10 5 20 11 N 1022,0 0,0
14.08.2018 18:00:00 21,8 14,2 8 4 17 9 NNW 1022,2 0,0
14.08.2018 17:00:00 21,5 13,7 10 6 20 11 N 1022,1 0,0
14.08.2018 16:00:00 21,8 14,2 7 4 22 12 N 1022,1 0,0
14.08.2018 15:00:00 21,4 14,3 8 4 21 12 N 1022,5 0,0
14.08.2018 14:00:00 21,5 14,9 6 3 23 12 N 1022,1 -
14.08.2018 13:00:00 20,7 15,9 8 5 16 9 NNE 1022,2 0,0
14.08.2018 12:00:00 19,6 16,8 3 2 8 5 NE 1022,2 0,0
14.08.2018 11:00:00 19,0 18,0 0 0 0 0 N 1021,9 0,0
14.08.2018 10:00:00 18,0 17,2 0 0 0 0 N 1021,5 0,0
14.08.2018 09:00:00 17,1 16,3 0 0 0 0 N 1021,1 0,1
14.08.2018 08:00:00 16,8 16,1 0 0 0 0 N 1021,1 -
14.08.2018 07:00:00 16,9 16,1 0 0 5 3 N 1020,3 0,0
14.08.2018 06:00:00 16,9 16,1 0 0 0 0 N 1020,0 0,0
14.08.2018 05:00:00 16,8 16,0 0 0 0 0 N 1020,0 0,0
14.08.2018 04:00:00 17,1 16,3 0 0 8 4 N 1019,8 0,1
14.08.2018 03:00:00 17,1 16,3 0 0 0 0 N 1019,9 0,0
14.08.2018 02:00:00 17,1 16,1 2 1 9 5 ESE 1019,8 -
14.08.2018 01:00:00 17,3 16,1 0 0 8 4 N 1019,9 0,0
14.08.2018 00:00:00 17,5 16,2 5 3 9 5 E 1019,5 0,2
13.08.2018 23:00:00 17,8 15,8 0 0 9 5 N 1019,5 0,8
13.08.2018 22:00:00 19,0 15,1 2 1 18 10 NW 1018,6 0,0
13.08.2018 21:00:00 19,9 14,5 8 5 20 11 WNW 1017,9 0,0
13.08.2018 20:00:00 21,0 15,3 3 2 15 8 W 1017,6 -
13.08.2018 19:00:00 21,2 15,5 4 2 16 8 NW 1017,3 0,0
13.08.2018 18:00:00 21,8 15,6 3 1 13 7 WNW 1016,8 0,0
13.08.2018 17:00:00 21,7 15,5 1 0 17 9 SE 1016,7 0,0
13.08.2018 16:00:00 21,1 15,9 4 2 13 7 N 1017,0 0,0
13.08.2018 15:00:00 20,9 15,9 5 3 17 9 NW 1016,7 0,0
13.08.2018 14:00:00 20,8 16,4 1 1 11 6 SE 1017,0 -
13.08.2018 13:00:00 19,8 16,6 1 1 8 4 NNW 1017,1 0,0
13.08.2018 12:00:00 19,7 17,1 0 0 16 8 ESE 1016,8 0,0
13.08.2018 11:00:00 19,0 18,0 3 2 14 8 W 1016,5 0,1
13.08.2018 10:00:00 18,8 17,9 0 0 7 4 N 1016,0 0,2
13.08.2018 09:00:00 18,5 17,5 2 1 6 4 ESE 1015,5 2,1
13.08.2018 08:00:00 18,6 17,3 0 0 0 0 N 1015,1 -
13.08.2018 07:00:00 18,7 17,2 0 0 0 0 N 1014,7 0,0
13.08.2018 06:00:00 18,6 17,1 0 0 0 0 N 1014,6 0,0
13.08.2018 05:00:00 18,5 17,0 0 0 0 0 N 1014,6 0,0
13.08.2018 04:00:00 18,5 16,8 0 0 0 0 N 1014,7 0,0
13.08.2018 03:00:00 18,5 16,8 0 0 0 0 N 1015,0 0,0
13.08.2018 02:00:00 18,4 16,6 0 0 0 0 N 1015,1 -
13.08.2018 01:00:00 18,3 16,1 0 0 6 4 N 1015,1 0,0
13.08.2018 00:00:00 19,0 16,6 0 0 0 0 N 1015,4 0,0
12.08.2018 23:00:00 19,0 15,9 0 0 0 0 N 1015,7 0,0
12.08.2018 22:00:00 20,5 16,6 0 0 8 5 N 1015,4 0,0
12.08.2018 21:00:00 21,7 16,9 1 1 8 4 NE 1014,6 0,0
12.08.2018 20:00:00 22,2 17,1 3 2 10 5 N 1013,9 -
12.08.2018 19:00:00 22,3 17,6 5 3 13 7 N 1014,2 0,0
12.08.2018 18:00:00 22,1 17,5 5 3 14 8 N 1013,6 0,0
12.08.2018 17:00:00 22,3 17,0 8 5 19 10 N 1013,8 0,0
12.08.2018 16:00:00 23,2 17,0 12 7 26 14 NNE 1013,8 0,0
12.08.2018 15:00:00 24,2 17,9 11 6 25 13 N 1013,6 0,0
12.08.2018 14:00:00 24,3 18,0 14 8 29 16 N 1013,3 -
12.08.2018 13:00:00 25,2 18,6 12 7 24 13 N 1013,5 0,0
12.08.2018 12:00:00 26,1 19,7 0 0 0 0 N 1013,7 0,0
12.08.2018 11:00:00 23,8 19,5 0 0 0 0 N 1014,5 0,0
12.08.2018 10:00:00 20,4 19,6 0 0 9 5 N 1014,9 0,0
12.08.2018 09:00:00 18,1 17,3 0 0 9 5 N 1015,3 0,0
12.08.2018 08:00:00 16,6 15,8 0 0 0 0 N 1015,3 -
12.08.2018 07:00:00 16,7 15,9 0 0 0 0 N 1015,2 0,0
12.08.2018 06:00:00 16,8 16,0 0 0 5 3 N 1015,4 0,0
12.08.2018 05:00:00 17,0 16,0 0 0 0 0 N 1015,9 0,0
12.08.2018 04:00:00 17,2 16,0 0 0 0 0 N 1016,5 0,0
12.08.2018 03:00:00 17,5 16,4 1 1 4 2 E 1017,2 0,0
12.08.2018 02:00:00 17,8 16,5 0 0 0 0 N 1018,1 -
12.08.2018 01:00:00 18,4 16,7 0 0 0 0 N 1018,5 0,0
12.08.2018 00:00:00 18,9 16,9 0 0 0 0 N 1019,3 0,0
11.08.2018 23:00:00 19,5 16,6 0 0 4 2 N 1019,0 0,0
11.08.2018 22:00:00 20,8 16,8 0 0 8 5 N 1018,5 0,0
11.08.2018 21:00:00 21,9 16,6 5 3 12 7 NNW 1018,0 0,0
11.08.2018 20:00:00 23,8 16,8 5 3 13 7 NNE 1017,9 -
11.08.2018 19:00:00 23,8 17,1 8 4 20 11 N 1018,2 0,0
11.08.2018 18:00:00 24,2 17,0 10 5 21 11 N 1018,4 0,0
11.08.2018 17:00:00 24,2 16,7 10 5 23 13 N 1018,9 0,0
11.08.2018 16:00:00 24,0 16,6 11 6 23 13 N 1019,3 0,0
11.08.2018 15:00:00 23,7 16,2 12 7 23 12 N 1020,1 0,0
11.08.2018 14:00:00 24,6 16,0 9 5 16 8 N 1020,5 -
11.08.2018 13:00:00 25,2 15,8 3 2 10 5 NE 1021,2 0,0
11.08.2018 12:00:00 23,2 15,0 3 1 8 5 W 1022,2 0,0
11.08.2018 11:00:00 21,7 14,8 4 2 8 5 E 1022,9 0,0
11.08.2018 10:00:00 19,2 15,4 0 0 6 3 ENE 1023,4 0,0
11.08.2018 09:00:00 16,7 15,5 0 0 0 0 N 1023,8 0,0
11.08.2018 08:00:00 14,7 13,6 0 0 0 0 N 1024,1 -
11.08.2018 07:00:00 14,9 13,7 0 0 0 0 N 1023,9 0,0
11.08.2018 06:00:00 15,7 14,2 0 0 0 0 N 1023,9 0,0
11.08.2018 05:00:00 16,4 14,6 0 0 7 4 N 1024,2 0,0
11.08.2018 04:00:00 16,6 14,6 0 0 0 0 N 1024,6 0,0
11.08.2018 03:00:00 16,5 14,5 0 0 9 5 N 1025,2 0,0
11.08.2018 02:00:00 16,5 14,5 0 0 0 0 N 1025,8 -
11.08.2018 01:00:00 16,5 14,5 0 0 4 2 N 1025,8 0,0
11.08.2018 00:00:00 16,3 13,9 0 0 2 1 N 1026,0 0,0
10.08.2018 23:00:00 16,7 13,9 1 0 5 3 E 1025,7 0,0
10.08.2018 22:00:00 17,8 13,6 1 1 9 5 ENE 1025,2 0,0
10.08.2018 21:00:00 19,2 13,2 6 3 18 10 N 1024,5 0,0
10.08.2018 20:00:00 20,2 13,5 10 5 20 11 N 1024,3 -
10.08.2018 19:00:00 21,1 13,6 9 5 23 12 NNW 1024,1 0,0
10.08.2018 18:00:00 21,9 14,3 11 6 21 11 N 1023,9 0,0
10.08.2018 17:00:00 21,9 14,3 11 6 25 14 N 1023,9 0,0
10.08.2018 16:00:00 21,8 14,2 10 6 27 14 N 1024,1 0,0
10.08.2018 15:00:00 21,8 14,2 13 7 22 12 N 1024,0 0,0
10.08.2018 14:00:00 21,9 14,0 11 6 21 11 N 1024,0 -
10.08.2018 13:00:00 22,3 13,9 7 4 14 8 N 1024,1 0,0
10.08.2018 12:00:00 20,5 13,7 2 1 8 5 NNW 1024,9 0,0
10.08.2018 11:00:00 20,0 15,6 2 1 9 5 NE 1025,2 0,0
10.08.2018 10:00:00 16,7 15,4 1 1 8 4 WSW 1025,8 0,0
10.08.2018 09:00:00 14,9 14,1 0 0 0 0 N 1025,9 0,0
10.08.2018 08:00:00 14,0 13,3 0 0 0 0 N 1025,7 -
10.08.2018 07:00:00 13,9 13,2 0 0 5 3 N 1025,4 0,0
10.08.2018 06:00:00 13,8 13,1 1 1 8 4 SSW 1025,2 0,0
10.08.2018 05:00:00 13,7 12,7 0 0 0 0 N 1025,3 0,0
10.08.2018 04:00:00 13,7 12,4 0 0 0 0 N 1025,3 0,0
10.08.2018 03:00:00 14,3 13,1 0 0 7 4 N 1025,5 0,0
10.08.2018 02:00:00 15,2 13,6 3 2 10 5 SW 1025,8 -
10.08.2018 01:00:00 15,7 13,9 5 3 10 6 SW 1025,6 0,0
10.08.2018 00:00:00 15,8 13,7 5 3 10 6 SW 1025,2 0,0
09.08.2018 23:00:00 15,8 13,0 2 1 8 4 SSE 1024,9 0,0
09.08.2018 22:00:00 17,4 13,4 4 2 8 5 WSW 1024,3 0,0
09.08.2018 21:00:00 18,5 12,7 1 1 16 8 W 1023,7 0,0
09.08.2018 20:00:00 19,1 11,9 5 3 14 8 NNW 1023,2 -
09.08.2018 19:00:00 20,0 12,5 5 3 16 8 N 1022,8 0,0
09.08.2018 18:00:00 19,6 12,6 8 5 18 10 NW 1022,5 0,0
09.08.2018 17:00:00 21,1 14,0 8 5 16 9 E 1021,7 0,0
09.08.2018 16:00:00 20,5 13,9 4 2 24 13 SW 1021,5 0,0
09.08.2018 15:00:00 19,6 13,8 3 2 29 16 SSW 1021,4 0,0
09.08.2018 14:00:00 20,2 13,2 9 5 31 17 WSW 1021,1 -
09.08.2018 13:00:00 19,3 13,1 8 5 17 9 NW 1020,9 0,1
09.08.2018 12:00:00 19,5 13,5 6 4 18 10 W 1020,4 0,0
09.08.2018 11:00:00 19,0 14,0 5 3 16 9 SSW 1019,6 0,0
09.08.2018 10:00:00 17,2 13,8 7 4 18 10 WSW 1019,0 0,0
09.08.2018 09:00:00 16,7 13,7 8 4 16 8 SW 1018,5 0,0
09.08.2018 08:00:00 16,7 13,8 5 3 14 8 WSW 1017,6 -
09.08.2018 07:00:00 16,5 13,6 3 2 11 6 SW 1016,9 0,0
09.08.2018 06:00:00 16,9 13,3 3 2 17 9 SSW 1015,9 0,0
09.08.2018 05:00:00 16,9 13,5 3 2 34 18 SW 1015,2 0,0
09.08.2018 04:00:00 16,8 13,2 4 2 32 17 W 1014,9 0,0

tt = Température de l'air
td = dewpoint
ff = Vitesse du vent
fx = gusts
dd = Direction du vent
ppp = reduced air pressure
rr = Quantités de précipitations

stations d'obs. à proximité